sensor_id;sensor_type;location;lat;lon;timestamp;P1;durP1;ratioP1;P2;durP2;ratioP2
5173;SDS011;2606;50.934;6.934;2022-10-20T00:01:17;9.83;;;4.80;;
5173;SDS011;2606;50.934;6.934;2022-10-20T00:03:45;16.10;;;4.57;;
5173;SDS011;2606;50.934;6.934;2022-10-20T00:06:16;9.13;;;4.53;;
5173;SDS011;2606;50.934;6.934;2022-10-20T00:08:44;5.90;;;4.60;;
5173;SDS011;2606;50.934;6.934;2022-10-20T00:11:10;12.27;;;4.50;;
5173;SDS011;2606;50.934;6.934;2022-10-20T00:13:38;11.33;;;4.90;;
5173;SDS011;2606;50.934;6.934;2022-10-20T00:16:04;9.57;;;4.60;;
5173;SDS011;2606;50.934;6.934;2022-10-20T00:18:31;9.90;;;4.93;;
5173;SDS011;2606;50.934;6.934;2022-10-20T00:20:56;6.57;;;4.80;;
5173;SDS011;2606;50.934;6.934;2022-10-20T00:23:22;17.13;;;4.60;;
5173;SDS011;2606;50.934;6.934;2022-10-20T00:25:48;9.70;;;4.93;;
5173;SDS011;2606;50.934;6.934;2022-10-20T00:28:23;5.30;;;4.00;;
5173;SDS011;2606;50.934;6.934;2022-10-20T00:30:52;9.40;;;5.10;;
5173;SDS011;2606;50.934;6.934;2022-10-20T00:33:19;7.63;;;4.37;;
5173;SDS011;2606;50.934;6.934;2022-10-20T00:35:45;8.80;;;4.27;;
5173;SDS011;2606;50.934;6.934;2022-10-20T00:38:10;9.53;;;4.80;;
5173;SDS011;2606;50.934;6.934;2022-10-20T00:40:36;8.40;;;4.57;;
5173;SDS011;2606;50.934;6.934;2022-10-20T00:43:02;7.37;;;4.23;;
5173;SDS011;2606;50.934;6.934;2022-10-20T00:45:27;8.10;;;4.50;;
5173;SDS011;2606;50.934;6.934;2022-10-20T00:47:58;6.93;;;3.93;;
5173;SDS011;2606;50.934;6.934;2022-10-20T00:50:30;9.17;;;4.57;;
5173;SDS011;2606;50.934;6.934;2022-10-20T00:53:04;5.73;;;4.03;;
5173;SDS011;2606;50.934;6.934;2022-10-20T00:55:31;9.73;;;4.73;;
5173;SDS011;2606;50.934;6.934;2022-10-20T00:57:59;9.00;;;4.63;;
5173;SDS011;2606;50.934;6.934;2022-10-20T01:00:26;11.47;;;4.23;;
5173;SDS011;2606;50.934;6.934;2022-10-20T01:02:53;7.57;;;4.23;;
5173;SDS011;2606;50.934;6.934;2022-10-20T01:05:20;15.10;;;4.97;;
5173;SDS011;2606;50.934;6.934;2022-10-20T01:07:46;8.70;;;4.57;;
5173;SDS011;2606;50.934;6.934;2022-10-20T01:10:11;6.60;;;3.93;;
5173;SDS011;2606;50.934;6.934;2022-10-20T01:32:31;8.47;;;4.80;;
5173;SDS011;2606;50.934;6.934;2022-10-20T01:35:24;7.90;;;4.93;;
5173;SDS011;2606;50.934;6.934;2022-10-20T01:43:26;8.80;;;4.73;;
5173;SDS011;2606;50.934;6.934;2022-10-20T01:45:54;6.60;;;4.70;;
5173;SDS011;2606;50.934;6.934;2022-10-20T01:48:22;8.27;;;4.93;;
5173;SDS011;2606;50.934;6.934;2022-10-20T01:50:52;7.10;;;4.23;;
5173;SDS011;2606;50.934;6.934;2022-10-20T01:53:18;12.47;;;7.63;;
5173;SDS011;2606;50.934;6.934;2022-10-20T01:55:44;9.00;;;4.40;;
5173;SDS011;2606;50.934;6.934;2022-10-20T02:01:15;6.67;;;4.27;;
5173;SDS011;2606;50.934;6.934;2022-10-20T02:03:57;7.30;;;4.80;;
5173;SDS011;2606;50.934;6.934;2022-10-20T02:12:05;11.00;;;4.60;;
5173;SDS011;2606;50.934;6.934;2022-10-20T02:14:33;7.23;;;4.50;;
5173;SDS011;2606;50.934;6.934;2022-10-20T02:17:02;12.03;;;5.13;;
5173;SDS011;2606;50.934;6.934;2022-10-20T02:19:34;5.97;;;4.27;;
5173;SDS011;2606;50.934;6.934;2022-10-20T02:22:03;8.00;;;4.47;;
5173;SDS011;2606;50.934;6.934;2022-10-20T02:24:35;5.83;;;4.70;;
5173;SDS011;2606;50.934;6.934;2022-10-20T02:27:04;7.70;;;4.60;;
5173;SDS011;2606;50.934;6.934;2022-10-20T02:29:38;7.37;;;4.37;;
5173;SDS011;2606;50.934;6.934;2022-10-20T02:32:13;5.47;;;3.93;;
5173;SDS011;2606;50.934;6.934;2022-10-20T02:34:41;11.60;;;4.60;;
5173;SDS011;2606;50.934;6.934;2022-10-20T02:37:07;6.97;;;4.80;;
5173;SDS011;2606;50.934;6.934;2022-10-20T02:39:32;10.90;;;4.50;;
5173;SDS011;2606;50.934;6.934;2022-10-20T02:41:58;6.40;;;4.43;;
5173;SDS011;2606;50.934;6.934;2022-10-20T02:44:24;7.13;;;4.30;;
5173;SDS011;2606;50.934;6.934;2022-10-20T02:46:49;8.27;;;4.60;;
5173;SDS011;2606;50.934;6.934;2022-10-20T02:49:15;6.00;;;4.67;;
5173;SDS011;2606;50.934;6.934;2022-10-20T02:51:40;7.93;;;4.77;;
5173;SDS011;2606;50.934;6.934;2022-10-20T02:54:06;5.70;;;3.67;;
5173;SDS011;2606;50.934;6.934;2022-10-20T02:56:31;5.67;;;3.90;;
5173;SDS011;2606;50.934;6.934;2022-10-20T02:58:57;7.00;;;4.50;;
5173;SDS011;2606;50.934;6.934;2022-10-20T03:01:22;6.60;;;4.17;;
5173;SDS011;2606;50.934;6.934;2022-10-20T03:03:49;6.40;;;4.07;;
5173;SDS011;2606;50.934;6.934;2022-10-20T03:06:15;6.77;;;4.70;;
5173;SDS011;2606;50.934;6.934;2022-10-20T03:08:41;7.60;;;4.33;;
5173;SDS011;2606;50.934;6.934;2022-10-20T03:11:07;7.17;;;5.17;;
5173;SDS011;2606;50.934;6.934;2022-10-20T03:13:33;7.77;;;4.50;;
5173;SDS011;2606;50.934;6.934;2022-10-20T03:15:59;17.33;;;5.03;;
5173;SDS011;2606;50.934;6.934;2022-10-20T03:18:25;7.20;;;4.30;;
5173;SDS011;2606;50.934;6.934;2022-10-20T03:20:52;12.40;;;5.40;;
5173;SDS011;2606;50.934;6.934;2022-10-20T03:23:18;10.23;;;4.17;;
5173;SDS011;2606;50.934;6.934;2022-10-20T03:25:44;8.10;;;4.77;;
5173;SDS011;2606;50.934;6.934;2022-10-20T03:28:09;12.10;;;4.20;;
5173;SDS011;2606;50.934;6.934;2022-10-20T03:30:35;8.53;;;4.43;;
5173;SDS011;2606;50.934;6.934;2022-10-20T03:33:00;8.23;;;4.77;;
5173;SDS011;2606;50.934;6.934;2022-10-20T03:35:26;9.30;;;4.70;;
5173;SDS011;2606;50.934;6.934;2022-10-20T03:37:52;8.53;;;4.67;;
5173;SDS011;2606;50.934;6.934;2022-10-20T03:40:18;6.97;;;4.27;;
5173;SDS011;2606;50.934;6.934;2022-10-20T03:42:43;14.63;;;4.50;;
5173;SDS011;2606;50.934;6.934;2022-10-20T03:45:09;13.73;;;4.07;;
5173;SDS011;2606;50.934;6.934;2022-10-20T03:47:35;4.60;;;3.63;;
5173;SDS011;2606;50.934;6.934;2022-10-20T03:50:00;9.60;;;4.50;;
5173;SDS011;2606;50.934;6.934;2022-10-20T03:52:26;12.57;;;4.97;;
5173;SDS011;2606;50.934;6.934;2022-10-20T03:54:52;6.40;;;4.33;;
5173;SDS011;2606;50.934;6.934;2022-10-20T03:57:18;10.00;;;4.43;;
5173;SDS011;2606;50.934;6.934;2022-10-20T03:59:44;3.80;;;3.23;;
5173;SDS011;2606;50.934;6.934;2022-10-20T04:02:19;5.30;;;4.03;;
5173;SDS011;2606;50.934;6.934;2022-10-20T04:04:53;5.20;;;3.63;;
5173;SDS011;2606;50.934;6.934;2022-10-20T04:07:19;4.73;;;3.50;;
5173;SDS011;2606;50.934;6.934;2022-10-20T04:09:45;6.80;;;4.00;;
5173;SDS011;2606;50.934;6.934;2022-10-20T04:12:10;6.93;;;3.73;;
5173;SDS011;2606;50.934;6.934;2022-10-20T04:14:36;11.23;;;3.43;;
5173;SDS011;2606;50.934;6.934;2022-10-20T04:17:01;5.67;;;3.50;;
5173;SDS011;2606;50.934;6.934;2022-10-20T04:19:27;10.90;;;4.07;;
5173;SDS011;2606;50.934;6.934;2022-10-20T04:21:52;9.03;;;3.60;;
5173;SDS011;2606;50.934;6.934;2022-10-20T04:24:18;6.90;;;4.90;;
5173;SDS011;2606;50.934;6.934;2022-10-20T04:26:43;7.80;;;4.13;;
5173;SDS011;2606;50.934;6.934;2022-10-20T04:29:09;5.90;;;3.40;;
5173;SDS011;2606;50.934;6.934;2022-10-20T04:31:34;5.60;;;4.00;;
5173;SDS011;2606;50.934;6.934;2022-10-20T04:34:00;9.07;;;4.30;;
5173;SDS011;2606;50.934;6.934;2022-10-20T04:36:25;8.77;;;4.27;;
5173;SDS011;2606;50.934;6.934;2022-10-20T04:38:51;4.73;;;4.10;;
5173;SDS011;2606;50.934;6.934;2022-10-20T04:41:16;12.27;;;4.60;;
5173;SDS011;2606;50.934;6.934;2022-10-20T04:43:42;4.90;;;3.73;;
5173;SDS011;2606;50.934;6.934;2022-10-20T04:46:09;9.93;;;3.70;;
5173;SDS011;2606;50.934;6.934;2022-10-20T04:48:35;24.93;;;11.43;;
5173;SDS011;2606;50.934;6.934;2022-10-20T04:53:31;31.87;;;16.77;;
5173;SDS011;2606;50.934;6.934;2022-10-20T04:55:58;6.77;;;4.27;;
5173;SDS011;2606;50.934;6.934;2022-10-20T04:58:24;14.00;;;3.87;;
5173;SDS011;2606;50.934;6.934;2022-10-20T05:00:50;8.60;;;4.83;;
5173;SDS011;2606;50.934;6.934;2022-10-20T05:03:16;9.60;;;4.03;;
5173;SDS011;2606;50.934;6.934;2022-10-20T05:05:43;7.30;;;4.40;;
5173;SDS011;2606;50.934;6.934;2022-10-20T05:08:09;7.87;;;4.17;;
5173;SDS011;2606;50.934;6.934;2022-10-20T05:10:35;8.77;;;3.83;;
5173;SDS011;2606;50.934;6.934;2022-10-20T05:13:00;4.67;;;3.60;;
5173;SDS011;2606;50.934;6.934;2022-10-20T05:15:26;5.27;;;3.90;;
5173;SDS011;2606;50.934;6.934;2022-10-20T05:17:51;5.97;;;3.53;;
5173;SDS011;2606;50.934;6.934;2022-10-20T05:20:17;9.33;;;4.10;;
5173;SDS011;2606;50.934;6.934;2022-10-20T05:22:43;4.73;;;3.60;;
5173;SDS011;2606;50.934;6.934;2022-10-20T05:25:08;5.03;;;3.50;;
5173;SDS011;2606;50.934;6.934;2022-10-20T05:27:34;11.07;;;3.90;;
5173;SDS011;2606;50.934;6.934;2022-10-20T05:29:59;9.67;;;4.80;;
5173;SDS011;2606;50.934;6.934;2022-10-20T05:32:27;5.97;;;4.10;;
5173;SDS011;2606;50.934;6.934;2022-10-20T05:34:53;9.80;;;4.47;;
5173;SDS011;2606;50.934;6.934;2022-10-20T05:37:18;8.07;;;3.90;;
5173;SDS011;2606;50.934;6.934;2022-10-20T05:39:44;7.47;;;4.47;;
5173;SDS011;2606;50.934;6.934;2022-10-20T05:42:10;8.20;;;4.07;;
5173;SDS011;2606;50.934;6.934;2022-10-20T05:44:35;6.23;;;4.00;;
5173;SDS011;2606;50.934;6.934;2022-10-20T05:47:01;7.43;;;4.80;;
5173;SDS011;2606;50.934;6.934;2022-10-20T05:49:27;5.00;;;3.97;;
5173;SDS011;2606;50.934;6.934;2022-10-20T05:51:52;11.77;;;5.00;;
5173;SDS011;2606;50.934;6.934;2022-10-20T05:54:18;5.93;;;4.40;;
5173;SDS011;2606;50.934;6.934;2022-10-20T05:56:43;7.57;;;4.60;;
5173;SDS011;2606;50.934;6.934;2022-10-20T05:59:09;9.83;;;4.60;;
5173;SDS011;2606;50.934;6.934;2022-10-20T06:01:35;8.27;;;4.57;;
5173;SDS011;2606;50.934;6.934;2022-10-20T06:04:11;7.57;;;4.20;;
5173;SDS011;2606;50.934;6.934;2022-10-20T06:06:41;7.63;;;4.43;;
5173;SDS011;2606;50.934;6.934;2022-10-20T06:09:08;14.80;;;5.33;;
5173;SDS011;2606;50.934;6.934;2022-10-20T06:11:34;10.70;;;4.30;;
5173;SDS011;2606;50.934;6.934;2022-10-20T06:14:00;10.30;;;4.67;;
5173;SDS011;2606;50.934;6.934;2022-10-20T06:16:27;6.27;;;4.70;;
5173;SDS011;2606;50.934;6.934;2022-10-20T06:18:53;7.20;;;4.70;;
5173;SDS011;2606;50.934;6.934;2022-10-20T06:21:22;8.53;;;4.60;;
5173;SDS011;2606;50.934;6.934;2022-10-20T06:23:49;8.67;;;4.37;;
5173;SDS011;2606;50.934;6.934;2022-10-20T06:26:16;6.55;;;4.40;;
5173;SDS011;2606;50.934;6.934;2022-10-20T06:28:44;5.13;;;4.00;;
5173;SDS011;2606;50.934;6.934;2022-10-20T06:31:15;7.10;;;4.40;;
5173;SDS011;2606;50.934;6.934;2022-10-20T06:33:48;6.23;;;4.53;;
5173;SDS011;2606;50.934;6.934;2022-10-20T06:36:14;7.03;;;4.60;;
5173;SDS011;2606;50.934;6.934;2022-10-20T06:38:41;19.87;;;4.37;;
5173;SDS011;2606;50.934;6.934;2022-10-20T06:41:08;7.07;;;5.00;;
5173;SDS011;2606;50.934;6.934;2022-10-20T06:43:36;6.87;;;4.50;;
5173;SDS011;2606;50.934;6.934;2022-10-20T06:46:07;5.30;;;3.93;;
5173;SDS011;2606;50.934;6.934;2022-10-20T06:48:36;8.10;;;5.07;;
5173;SDS011;2606;50.934;6.934;2022-10-20T06:51:03;12.40;;;5.10;;
5173;SDS011;2606;50.934;6.934;2022-10-20T06:53:30;11.47;;;4.60;;
5173;SDS011;2606;50.934;6.934;2022-10-20T06:55:58;8.13;;;3.77;;
5173;SDS011;2606;50.934;6.934;2022-10-20T06:58:30;6.63;;;4.47;;
5173;SDS011;2606;50.934;6.934;2022-10-20T07:01:00;6.03;;;4.13;;
5173;SDS011;2606;50.934;6.934;2022-10-20T07:03:27;7.93;;;4.47;;
5173;SDS011;2606;50.934;6.934;2022-10-20T07:05:53;13.10;;;4.97;;
5173;SDS011;2606;50.934;6.934;2022-10-20T07:08:19;8.33;;;4.60;;
5173;SDS011;2606;50.934;6.934;2022-10-20T07:10:46;9.77;;;5.33;;
5173;SDS011;2606;50.934;6.934;2022-10-20T07:13:11;6.60;;;4.50;;
5173;SDS011;2606;50.934;6.934;2022-10-20T07:15:37;11.80;;;5.37;;
5173;SDS011;2606;50.934;6.934;2022-10-20T07:18:03;10.20;;;4.50;;
5173;SDS011;2606;50.934;6.934;2022-10-20T07:20:28;5.30;;;4.37;;
5173;SDS011;2606;50.934;6.934;2022-10-20T07:22:54;16.67;;;5.20;;
5173;SDS011;2606;50.934;6.934;2022-10-20T07:25:19;10.43;;;4.63;;
5173;SDS011;2606;50.934;6.934;2022-10-20T07:27:46;10.20;;;5.50;;
5173;SDS011;2606;50.934;6.934;2022-10-20T07:30:12;6.90;;;4.57;;
5173;SDS011;2606;50.934;6.934;2022-10-20T07:32:38;8.17;;;5.30;;
5173;SDS011;2606;50.934;6.934;2022-10-20T07:35:04;11.10;;;4.70;;
5173;SDS011;2606;50.934;6.934;2022-10-20T07:37:30;12.87;;;5.17;;
5173;SDS011;2606;50.934;6.934;2022-10-20T07:39:55;9.87;;;4.60;;
5173;SDS011;2606;50.934;6.934;2022-10-20T07:42:21;9.03;;;5.50;;
5173;SDS011;2606;50.934;6.934;2022-10-20T07:44:46;7.50;;;5.30;;
5173;SDS011;2606;50.934;6.934;2022-10-20T07:47:12;10.07;;;6.53;;
5173;SDS011;2606;50.934;6.934;2022-10-20T07:49:37;8.00;;;5.00;;
5173;SDS011;2606;50.934;6.934;2022-10-20T07:52:03;9.67;;;5.23;;
5173;SDS011;2606;50.934;6.934;2022-10-20T07:54:29;9.40;;;6.30;;
5173;SDS011;2606;50.934;6.934;2022-10-20T07:56:55;9.70;;;5.40;;
5173;SDS011;2606;50.934;6.934;2022-10-20T07:59:21;8.77;;;5.23;;
5173;SDS011;2606;50.934;6.934;2022-10-20T08:01:46;7.63;;;5.50;;
5173;SDS011;2606;50.934;6.934;2022-10-20T08:04:12;9.40;;;6.07;;
5173;SDS011;2606;50.934;6.934;2022-10-20T08:06:38;8.50;;;5.20;;
5173;SDS011;2606;50.934;6.934;2022-10-20T08:09:03;8.77;;;5.50;;
5173;SDS011;2606;50.934;6.934;2022-10-20T08:11:29;7.17;;;5.10;;
5173;SDS011;2606;50.934;6.934;2022-10-20T08:13:55;10.17;;;5.37;;
5173;SDS011;2606;50.934;6.934;2022-10-20T08:16:20;10.87;;;5.40;;
5173;SDS011;2606;50.934;6.934;2022-10-20T08:18:46;7.27;;;5.30;;
5173;SDS011;2606;50.934;6.934;2022-10-20T08:21:16;13.37;;;5.70;;
5173;SDS011;2606;50.934;6.934;2022-10-20T08:23:44;8.10;;;5.10;;
5173;SDS011;2606;50.934;6.934;2022-10-20T08:26:11;8.33;;;5.70;;
5173;SDS011;2606;50.934;6.934;2022-10-20T08:28:40;10.33;;;5.17;;
5173;SDS011;2606;50.934;6.934;2022-10-20T08:31:06;10.60;;;5.73;;
5173;SDS011;2606;50.934;6.934;2022-10-20T08:33:32;8.17;;;5.23;;
5173;SDS011;2606;50.934;6.934;2022-10-20T08:36:02;10.47;;;5.20;;
5173;SDS011;2606;50.934;6.934;2022-10-20T08:38:29;11.07;;;5.40;;
5173;SDS011;2606;50.934;6.934;2022-10-20T08:40:55;8.43;;;4.80;;
5173;SDS011;2606;50.934;6.934;2022-10-20T08:43:22;15.03;;;5.20;;
5173;SDS011;2606;50.934;6.934;2022-10-20T08:45:49;8.17;;;4.80;;
5173;SDS011;2606;50.934;6.934;2022-10-20T08:48:17;11.20;;;4.97;;
5173;SDS011;2606;50.934;6.934;2022-10-20T08:50:52;9.90;;;5.40;;
5173;SDS011;2606;50.934;6.934;2022-10-20T08:53:18;11.30;;;5.20;;
5173;SDS011;2606;50.934;6.934;2022-10-20T08:55:47;12.47;;;5.83;;
5173;SDS011;2606;50.934;6.934;2022-10-20T08:58:14;5.37;;;4.33;;
5173;SDS011;2606;50.934;6.934;2022-10-20T09:00:43;10.07;;;5.00;;
5173;SDS011;2606;50.934;6.934;2022-10-20T09:05:50;9.43;;;5.53;;
5173;SDS011;2606;50.934;6.934;2022-10-20T09:08:28;12.37;;;5.03;;
5173;SDS011;2606;50.934;6.934;2022-10-20T09:10:56;10.40;;;5.87;;
5173;SDS011;2606;50.934;6.934;2022-10-20T09:13:23;6.63;;;5.00;;
5173;SDS011;2606;50.934;6.934;2022-10-20T09:15:49;8.43;;;4.67;;
5173;SDS011;2606;50.934;6.934;2022-10-20T09:18:18;12.47;;;5.47;;
5173;SDS011;2606;50.934;6.934;2022-10-20T09:20:51;9.00;;;5.53;;
5173;SDS011;2606;50.934;6.934;2022-10-20T09:23:22;8.67;;;5.57;;
5173;SDS011;2606;50.934;6.934;2022-10-20T09:25:51;11.10;;;5.53;;
5173;SDS011;2606;50.934;6.934;2022-10-20T09:28:27;9.73;;;5.20;;
5173;SDS011;2606;50.934;6.934;2022-10-20T09:30:53;9.43;;;5.23;;
5173;SDS011;2606;50.934;6.934;2022-10-20T09:33:27;12.87;;;5.10;;
5173;SDS011;2606;50.934;6.934;2022-10-20T09:35:57;9.83;;;5.70;;
5173;SDS011;2606;50.934;6.934;2022-10-20T09:38:45;9.63;;;5.70;;
5173;SDS011;2606;50.934;6.934;2022-10-20T09:41:17;14.53;;;6.80;;
5173;SDS011;2606;50.934;6.934;2022-10-20T09:43:46;11.83;;;4.97;;
5173;SDS011;2606;50.934;6.934;2022-10-20T09:46:16;9.17;;;5.53;;
5173;SDS011;2606;50.934;6.934;2022-10-20T09:48:46;12.03;;;4.97;;
5173;SDS011;2606;50.934;6.934;2022-10-20T09:51:17;20.37;;;11.13;;
5173;SDS011;2606;50.934;6.934;2022-10-20T09:59:00;10.23;;;6.10;;
5173;SDS011;2606;50.934;6.934;2022-10-20T10:01:28;8.50;;;5.67;;
5173;SDS011;2606;50.934;6.934;2022-10-20T10:03:54;10.93;;;6.30;;
5173;SDS011;2606;50.934;6.934;2022-10-20T10:09:20;13.43;;;6.50;;
5173;SDS011;2606;50.934;6.934;2022-10-20T10:11:57;20.83;;;11.90;;
5173;SDS011;2606;50.934;6.934;2022-10-20T10:14:50;10.13;;;6.73;;
5173;SDS011;2606;50.934;6.934;2022-10-20T10:17:34;14.30;;;7.00;;
5173;SDS011;2606;50.934;6.934;2022-10-20T10:20:00;11.60;;;6.67;;
5173;SDS011;2606;50.934;6.934;2022-10-20T10:22:29;12.50;;;6.90;;
5173;SDS011;2606;50.934;6.934;2022-10-20T10:24:55;12.07;;;6.90;;
5173;SDS011;2606;50.934;6.934;2022-10-20T10:27:31;18.17;;;7.77;;
5173;SDS011;2606;50.934;6.934;2022-10-20T10:32:55;18.97;;;8.83;;
5173;SDS011;2606;50.934;6.934;2022-10-20T10:35:37;13.73;;;8.00;;
5173;SDS011;2606;50.934;6.934;2022-10-20T10:38:08;13.60;;;8.53;;
5173;SDS011;2606;50.934;6.934;2022-10-20T10:40:43;10.80;;;7.37;;
5173;SDS011;2606;50.934;6.934;2022-10-20T10:51:26;12.10;;;7.33;;
5173;SDS011;2606;50.934;6.934;2022-10-20T10:54:19;15.50;;;8.00;;
5173;SDS011;2606;50.934;6.934;2022-10-20T10:57:10;12.43;;;7.17;;
5173;SDS011;2606;50.934;6.934;2022-10-20T10:59:42;11.77;;;7.20;;
5173;SDS011;2606;50.934;6.934;2022-10-20T11:05:36;13.30;;;7.90;;
5173;SDS011;2606;50.934;6.934;2022-10-20T11:16:22;22.73;;;11.50;;
5173;SDS011;2606;50.934;6.934;2022-10-20T11:19:04;15.10;;;8.17;;
5173;SDS011;2606;50.934;6.934;2022-10-20T11:21:56;12.67;;;8.20;;
5173;SDS011;2606;50.934;6.934;2022-10-20T11:27:15;18.97;;;9.07;;
5173;SDS011;2606;50.934;6.934;2022-10-20T11:32:42;16.20;;;8.50;;
5173;SDS011;2606;50.934;6.934;2022-10-20T11:41:02;18.63;;;9.70;;
5173;SDS011;2606;50.934;6.934;2022-10-20T11:43:34;13.97;;;8.57;;
5173;SDS011;2606;50.934;6.934;2022-10-20T11:46:07;14.67;;;8.50;;
5173;SDS011;2606;50.934;6.934;2022-10-20T12:02:29;17.03;;;8.80;;
5173;SDS011;2606;50.934;6.934;2022-10-20T12:10:48;17.60;;;9.87;;
5173;SDS011;2606;50.934;6.934;2022-10-20T12:16:10;22.50;;;11.57;;
5173;SDS011;2606;50.934;6.934;2022-10-20T12:18:36;20.07;;;12.67;;
5173;SDS011;2606;50.934;6.934;2022-10-20T12:21:06;16.90;;;10.00;;
5173;SDS011;2606;50.934;6.934;2022-10-20T12:28:57;14.27;;;9.30;;
5173;SDS011;2606;50.934;6.934;2022-10-20T12:31:23;19.33;;;9.27;;
5173;SDS011;2606;50.934;6.934;2022-10-20T12:34:21;17.00;;;9.47;;
5173;SDS011;2606;50.934;6.934;2022-10-20T12:36:49;18.93;;;10.90;;
5173;SDS011;2606;50.934;6.934;2022-10-20T12:39:30;18.73;;;9.03;;
5173;SDS011;2606;50.934;6.934;2022-10-20T12:41:57;16.77;;;9.53;;
5173;SDS011;2606;50.934;6.934;2022-10-20T12:44:38;13.80;;;8.60;;
5173;SDS011;2606;50.934;6.934;2022-10-20T12:47:07;17.37;;;9.90;;
5173;SDS011;2606;50.934;6.934;2022-10-20T12:49:35;15.17;;;9.27;;
5173;SDS011;2606;50.934;6.934;2022-10-20T12:52:03;16.47;;;10.00;;
5173;SDS011;2606;50.934;6.934;2022-10-20T12:54:36;17.07;;;10.13;;
5173;SDS011;2606;50.934;6.934;2022-10-20T12:57:22;17.90;;;10.40;;
5173;SDS011;2606;50.934;6.934;2022-10-20T13:00:06;16.23;;;9.67;;
5173;SDS011;2606;50.934;6.934;2022-10-20T13:02:52;16.30;;;11.80;;
5173;SDS011;2606;50.934;6.934;2022-10-20T13:13:39;13.23;;;9.30;;
5173;SDS011;2606;50.934;6.934;2022-10-20T13:15:37;16.10;;;9.60;;
5173;SDS011;2606;50.934;6.934;2022-10-20T13:23:57;15.73;;;10.33;;
5173;SDS011;2606;50.934;6.934;2022-10-20T13:28:46;17.17;;;8.87;;
5173;SDS011;2606;50.934;6.934;2022-10-20T13:31:15;22.83;;;10.00;;
5173;SDS011;2606;50.934;6.934;2022-10-20T13:47:44;23.20;;;9.73;;
5173;SDS011;2606;50.934;6.934;2022-10-20T13:50:20;14.23;;;9.00;;
5173;SDS011;2606;50.934;6.934;2022-10-20T13:52:51;21.40;;;9.87;;
5173;SDS011;2606;50.934;6.934;2022-10-20T13:55:22;20.37;;;9.20;;
5173;SDS011;2606;50.934;6.934;2022-10-20T13:57:51;14.73;;;8.73;;
5173;SDS011;2606;50.934;6.934;2022-10-20T14:02:59;16.00;;;9.43;;
5173;SDS011;2606;50.934;6.934;2022-10-20T14:05:27;15.13;;;9.03;;
5173;SDS011;2606;50.934;6.934;2022-10-20T14:07:54;14.40;;;9.33;;
5173;SDS011;2606;50.934;6.934;2022-10-20T14:10:21;22.43;;;9.70;;
5173;SDS011;2606;50.934;6.934;2022-10-20T14:13:09;13.57;;;8.90;;
5173;SDS011;2606;50.934;6.934;2022-10-20T14:15:39;21.27;;;10.30;;
5173;SDS011;2606;50.934;6.934;2022-10-20T14:18:18;24.30;;;10.13;;
5173;SDS011;2606;50.934;6.934;2022-10-20T14:20:59;19.07;;;10.40;;
5173;SDS011;2606;50.934;6.934;2022-10-20T14:23:28;16.93;;;10.20;;
5173;SDS011;2606;50.934;6.934;2022-10-20T14:26:01;14.83;;;9.20;;
5173;SDS011;2606;50.934;6.934;2022-10-20T14:28:28;16.60;;;9.70;;
5173;SDS011;2606;50.934;6.934;2022-10-20T14:30:56;14.30;;;9.40;;
5173;SDS011;2606;50.934;6.934;2022-10-20T14:33:23;19.27;;;8.60;;
5173;SDS011;2606;50.934;6.934;2022-10-20T14:35:52;13.10;;;8.33;;
5173;SDS011;2606;50.934;6.934;2022-10-20T14:38:31;18.00;;;9.30;;
5173;SDS011;2606;50.934;6.934;2022-10-20T14:40:59;19.73;;;10.00;;
5173;SDS011;2606;50.934;6.934;2022-10-20T14:46:03;17.73;;;9.93;;
5173;SDS011;2606;50.934;6.934;2022-10-20T14:48:32;16.60;;;11.03;;
5173;SDS011;2606;50.934;6.934;2022-10-20T14:51:01;18.47;;;10.47;;
5173;SDS011;2606;50.934;6.934;2022-10-20T14:53:47;16.37;;;8.93;;
5173;SDS011;2606;50.934;6.934;2022-10-20T14:56:21;19.43;;;9.60;;
5173;SDS011;2606;50.934;6.934;2022-10-20T14:58:58;17.93;;;9.93;;
5173;SDS011;2606;50.934;6.934;2022-10-20T15:01:25;18.17;;;9.80;;
5173;SDS011;2606;50.934;6.934;2022-10-20T15:04:13;15.37;;;9.77;;
5173;SDS011;2606;50.934;6.934;2022-10-20T15:06:49;22.67;;;10.80;;
5173;SDS011;2606;50.934;6.934;2022-10-20T15:09:19;15.90;;;11.07;;
5173;SDS011;2606;50.934;6.934;2022-10-20T15:11:52;22.63;;;11.77;;
5173;SDS011;2606;50.934;6.934;2022-10-20T15:14:17;18.40;;;11.50;;
5173;SDS011;2606;50.934;6.934;2022-10-20T15:16:44;20.33;;;10.73;;
5173;SDS011;2606;50.934;6.934;2022-10-20T15:21:48;17.63;;;10.57;;
5173;SDS011;2606;50.934;6.934;2022-10-20T15:24:14;16.83;;;9.93;;
5173;SDS011;2606;50.934;6.934;2022-10-20T15:26:39;21.07;;;10.47;;
5173;SDS011;2606;50.934;6.934;2022-10-20T15:29:05;22.73;;;11.67;;
5173;SDS011;2606;50.934;6.934;2022-10-20T15:31:32;15.60;;;9.57;;
5173;SDS011;2606;50.934;6.934;2022-10-20T15:33:57;17.03;;;11.03;;
5173;SDS011;2606;50.934;6.934;2022-10-20T15:36:27;18.23;;;11.17;;
5173;SDS011;2606;50.934;6.934;2022-10-20T15:38:57;13.50;;;9.47;;
5173;SDS011;2606;50.934;6.934;2022-10-20T15:41:24;18.50;;;11.23;;
5173;SDS011;2606;50.934;6.934;2022-10-20T15:43:51;19.43;;;10.97;;
5173;SDS011;2606;50.934;6.934;2022-10-20T15:46:17;18.50;;;11.40;;
5173;SDS011;2606;50.934;6.934;2022-10-20T15:48:44;20.87;;;11.50;;
5173;SDS011;2606;50.934;6.934;2022-10-20T15:51:19;18.67;;;10.83;;
5173;SDS011;2606;50.934;6.934;2022-10-20T15:53:54;17.93;;;11.60;;
5173;SDS011;2606;50.934;6.934;2022-10-20T15:56:20;26.83;;;13.20;;
5173;SDS011;2606;50.934;6.934;2022-10-20T15:58:46;21.97;;;12.33;;
5173;SDS011;2606;50.934;6.934;2022-10-20T16:01:14;24.50;;;11.80;;
5173;SDS011;2606;50.934;6.934;2022-10-20T16:03:43;17.43;;;11.60;;
5173;SDS011;2606;50.934;6.934;2022-10-20T16:06:12;20.17;;;11.57;;
5173;SDS011;2606;50.934;6.934;2022-10-20T16:08:40;18.57;;;11.67;;
5173;SDS011;2606;50.934;6.934;2022-10-20T16:11:07;25.60;;;13.77;;
5173;SDS011;2606;50.934;6.934;2022-10-20T16:13:33;17.50;;;11.03;;
5173;SDS011;2606;50.934;6.934;2022-10-20T16:16:00;22.50;;;12.40;;
5173;SDS011;2606;50.934;6.934;2022-10-20T16:18:25;20.67;;;11.80;;
5173;SDS011;2606;50.934;6.934;2022-10-20T16:20:51;17.30;;;11.03;;
5173;SDS011;2606;50.934;6.934;2022-10-20T16:23:17;17.30;;;9.60;;
5173;SDS011;2606;50.934;6.934;2022-10-20T16:25:43;17.10;;;9.70;;
5173;SDS011;2606;50.934;6.934;2022-10-20T16:28:08;22.40;;;11.50;;
5173;SDS011;2606;50.934;6.934;2022-10-20T16:30:34;20.50;;;11.93;;
5173;SDS011;2606;50.934;6.934;2022-10-20T16:33:00;17.93;;;10.80;;
5173;SDS011;2606;50.934;6.934;2022-10-20T16:35:25;22.23;;;11.80;;
5173;SDS011;2606;50.934;6.934;2022-10-20T16:37:51;22.10;;;13.60;;
5173;SDS011;2606;50.934;6.934;2022-10-20T16:40:17;26.93;;;13.20;;
5173;SDS011;2606;50.934;6.934;2022-10-20T16:42:43;26.20;;;11.53;;
5173;SDS011;2606;50.934;6.934;2022-10-20T16:45:09;21.87;;;12.47;;
5173;SDS011;2606;50.934;6.934;2022-10-20T16:47:35;21.35;;;12.70;;
5173;SDS011;2606;50.934;6.934;2022-10-20T16:50:00;18.03;;;10.93;;
5173;SDS011;2606;50.934;6.934;2022-10-20T16:52:26;20.30;;;11.57;;
5173;SDS011;2606;50.934;6.934;2022-10-20T16:54:51;24.30;;;11.80;;
5173;SDS011;2606;50.934;6.934;2022-10-20T16:57:17;26.10;;;12.23;;
5173;SDS011;2606;50.934;6.934;2022-10-20T16:59:43;24.60;;;12.40;;
5173;SDS011;2606;50.934;6.934;2022-10-20T17:02:13;27.23;;;12.50;;
5173;SDS011;2606;50.934;6.934;2022-10-20T17:04:40;23.03;;;13.60;;
5173;SDS011;2606;50.934;6.934;2022-10-20T17:07:06;17.47;;;10.50;;
5173;SDS011;2606;50.934;6.934;2022-10-20T17:09:32;23.20;;;12.90;;
5173;SDS011;2606;50.934;6.934;2022-10-20T17:11:58;25.10;;;14.40;;
5173;SDS011;2606;50.934;6.934;2022-10-20T17:14:24;18.70;;;12.37;;
5173;SDS011;2606;50.934;6.934;2022-10-20T17:16:49;23.97;;;11.20;;
5173;SDS011;2606;50.934;6.934;2022-10-20T17:19:15;23.03;;;11.57;;
5173;SDS011;2606;50.934;6.934;2022-10-20T17:21:41;17.90;;;11.47;;
5173;SDS011;2606;50.934;6.934;2022-10-20T17:24:35;23.43;;;12.67;;
5173;SDS011;2606;50.934;6.934;2022-10-20T17:27:37;22.80;;;13.37;;
5173;SDS011;2606;50.934;6.934;2022-10-20T17:30:06;20.93;;;10.80;;
5173;SDS011;2606;50.934;6.934;2022-10-20T17:32:34;18.60;;;11.80;;
5173;SDS011;2606;50.934;6.934;2022-10-20T17:35:36;26.77;;;13.00;;
5173;SDS011;2606;50.934;6.934;2022-10-20T17:38:27;19.70;;;11.07;;
5173;SDS011;2606;50.934;6.934;2022-10-20T17:44:00;23.00;;;12.00;;
5173;SDS011;2606;50.934;6.934;2022-10-20T17:46:51;21.00;;;10.90;;